Time;durP1;ratioP1;P1;durP2;ratioP2;P2;SDS_P1;SDS_P2;PMS_P1;PMS_P2;Temp;Humidity;BMP_temperature;BMP_pressure;BME280_temperature;BME280_humidity;BME280_pressure;Samples;Min_cycle;Max_cycle;Signal;HPM_P1;HPM_P2
2022/09/02 00:01:26;;;;;;;;;;;435.40;1996.80;;;;;;5030425;28;19915;-56
2022/09/02 00:03:55;;;;;;;;;;;435.40;1996.80;;;;;;5028093;28;19963;-57
2022/09/02 00:06:20;;;;;;;;;;;435.30;2022.40;;;;;;5030015;28;19917;-56
2022/09/02 00:08:46;;;;;;;;;;;435.30;1971.20;;;;;;5030113;28;19963;-56
2022/09/02 00:11:13;;;;;;;;;;;435.30;2099.20;;;;;;5030541;28;20004;-56
2022/09/02 00:13:39;;;;;;;;;;;435.30;2355.20;;;;;;5030039;28;19916;-57
2022/09/02 00:16:06;;;;;;;;;;;435.40;2355.20;;;;;;5030268;28;19917;-56
2022/09/02 00:18:32;;;;;;;;;;;435.40;2355.20;;;;;;5030186;28;19909;-57
2022/09/02 00:20:58;;;;;;;;;;;435.40;2355.20;;;;;;5029869;28;19992;-56
2022/09/02 00:23:23;;;;;;;;;;;435.30;2355.20;;;;;;5030164;28;19960;-58
2022/09/02 00:25:49;;;;;;;;;;;435.30;2355.20;;;;;;5029915;28;20467;-56
2022/09/02 00:28:15;;;;;;;;;;;435.30;2355.20;;;;;;5030349;28;19913;-56
2022/09/02 00:30:41;;;;;;;;;;;435.30;2355.20;;;;;;5030175;28;19960;-58
2022/09/02 00:33:07;;;;;;;;;;;435.30;2355.20;;;;;;5029910;28;19971;-56
2022/09/02 00:35:33;;;;;;;;;;;435.30;2355.20;;;;;;5030008;28;20334;-57
2022/09/02 00:37:59;;;;;;;;;;;435.30;2355.20;;;;;;5029782;28;19910;-56
2022/09/02 00:40:25;;;;;;;;;;;435.30;2355.20;;;;;;5030186;28;19917;-57
2022/09/02 00:42:51;;;;;;;;;;;435.30;2355.20;;;;;;5030062;28;19910;-56
2022/09/02 00:45:17;;;;;;;;;;;435.30;2355.20;;;;;;5029854;28;19916;-56
2022/09/02 00:47:44;;;;;;;;;;;435.40;2355.20;;;;;;5030418;28;19917;-58
2022/09/02 00:50:11;;;;;;;;;;;435.30;2355.20;;;;;;5030300;28;19913;-56
2022/09/02 00:52:42;;;;;;;;;;;435.30;2355.20;;;;;;5031861;28;20358;-56
2022/09/02 00:55:11;;;;;;;;;;;435.40;2355.20;;;;;;5033820;28;19921;-57
2022/09/02 00:57:39;;;;;;;;;;;435.40;2355.20;;;;;;5033817;28;19909;-56
2022/09/02 01:00:16;;;;;;;;;;;435.40;2355.20;;;;;;5034052;28;20000;-56
2022/09/02 01:02:43;;;;;;;;;;;435.40;2355.20;;;;;;5033857;28;19909;-56
2022/09/02 01:05:12;;;;;;;;;;;435.40;2355.20;;;;;;5033664;28;19909;-57
2022/09/02 01:07:37;;;;;;;;;;;435.40;2355.20;;;;;;5033658;28;19917;-57
2022/09/02 01:10:07;;;;;;;;;;;435.40;2355.20;;;;;;5033793;28;19916;-56
2022/09/02 01:12:34;;;;;;;;;;;435.40;2355.20;;;;;;5033824;28;19916;-56
2022/09/02 01:15:00;;;;;;;;;;;435.30;2355.20;;;;;;5033562;28;19916;-56
2022/09/02 01:17:25;;;;;;;;;;;435.30;2355.20;;;;;;5033653;28;19909;-56
2022/09/02 01:19:53;;;;;;;;;;;435.30;2355.20;;;;;;5032401;28;20294;-56
2022/09/02 01:22:23;;;;;;;;;;;435.20;2355.20;;;;;;5032953;28;19963;-57
2022/09/02 01:24:49;;;;;;;;;;;435.20;2355.20;;;;;;5033461;28;19982;-57
2022/09/02 01:27:16;;;;;;;;;;;435.20;2355.20;;;;;;5033488;28;20370;-57
2022/09/02 01:29:41;;;;;;;;;;;435.30;2355.20;;;;;;5033402;28;19909;-57
2022/09/02 01:32:07;;;;;;;;;;;435.30;2355.20;;;;;;5033257;28;19916;-58
2022/09/02 01:34:32;;;;;;;;;;;435.20;2355.20;;;;;;5033294;28;19909;-56
2022/09/02 01:36:58;;;;;;;;;;;435.20;2355.20;;;;;;5033097;28;19946;-55
2022/09/02 01:39:24;;;;;;;;;;;435.30;2355.20;;;;;;5031983;28;20421;-56
2022/09/02 01:41:49;;;;;;;;;;;435.30;2355.20;;;;;;5032872;28;19946;-56
2022/09/02 01:44:16;;;;;;;;;;;435.30;2355.20;;;;;;5033234;28;19909;-56
2022/09/02 01:46:42;;;;;;;;;;;435.30;2355.20;;;;;;5031926;28;19921;-55
2022/09/02 01:49:07;;;;;;;;;;;435.40;2355.20;;;;;;5032843;28;20274;-56
2022/09/02 01:51:33;;;;;;;;;;;435.30;2355.20;;;;;;5032795;28;19924;-55
2022/09/02 01:53:59;;;;;;;;;;;435.40;2355.20;;;;;;5032707;28;20004;-56
2022/09/02 01:56:24;;;;;;;;;;;435.30;2355.20;;;;;;5032865;28;19914;-56
2022/09/02 01:58:50;;;;;;;;;;;435.30;2355.20;;;;;;5032639;28;19952;-56
2022/09/02 02:01:15;;;;;;;;;;;435.40;2355.20;;;;;;5032814;28;19909;-56
2022/09/02 02:03:41;;;;;;;;;;;435.40;2355.20;;;;;;5032047;28;20374;-56
2022/09/02 02:06:10;;;;;;;;;;;435.40;2355.20;;;;;;5032392;28;20351;-55
2022/09/02 02:08:37;;;;;;;;;;;435.30;2355.20;;;;;;5031066;28;20346;-55
2022/09/02 02:11:03;;;;;;;;;;;435.40;2355.20;;;;;;5032729;28;19915;-55
2022/09/02 02:13:29;;;;;;;;;;;435.30;2355.20;;;;;;5032212;28;19909;-55
2022/09/02 02:15:55;;;;;;;;;;;435.30;2355.20;;;;;;5032558;28;19912;-56
2022/09/02 02:18:21;;;;;;;;;;;435.30;2355.20;;;;;;5032217;28;20291;-56
2022/09/02 02:20:46;;;;;;;;;;;435.30;2355.20;;;;;;5032043;28;20267;-55
2022/09/02 02:23:12;;;;;;;;;;;435.30;2355.20;;;;;;5032355;28;19964;-55
2022/09/02 02:25:38;;;;;;;;;;;435.30;2355.20;;;;;;5032012;28;19935;-56
2022/09/02 02:28:03;;;;;;;;;;;435.30;2355.20;;;;;;5032414;28;19909;-56
2022/09/02 02:30:29;;;;;;;;;;;435.30;2355.20;;;;;;5031925;28;20379;-57
2022/09/02 02:32:55;;;;;;;;;;;435.30;2355.20;;;;;;5032212;28;19960;-55
2022/09/02 02:35:20;;;;;;;;;;;435.30;2355.20;;;;;;5031992;28;20003;-56
2022/09/02 02:37:48;;;;;;;;;;;435.20;2355.20;;;;;;5031773;28;19909;-55
2022/09/02 02:40:14;;;;;;;;;;;410.50;2355.20;;;;;;5030158;28;19910;-56
2022/09/02 02:42:40;;;;;;;;;;;410.50;2355.20;;;;;;5031881;28;19963;-55
2022/09/02 02:45:08;;;;;;;;;;;410.40;2355.20;;;;;;5031954;28;19909;-57
2022/09/02 02:47:34;;;;;;;;;;;410.50;2355.20;;;;;;5030599;28;20004;-56
2022/09/02 02:49:59;;;;;;;;;;;410.50;2355.20;;;;;;5031568;28;20319;-56
2022/09/02 02:52:26;;;;;;;;;;;410.50;2355.20;;;;;;5031714;28;19917;-56
2022/09/02 02:54:51;;;;;;;;;;;410.50;2355.20;;;;;;5031816;28;20367;-56
2022/09/02 02:57:17;;;;;;;;;;;410.40;2355.20;;;;;;5031709;28;20024;-55
2022/09/02 02:59:43;;;;;;;;;;;410.40;2355.20;;;;;;5031652;28;19963;-56
2022/09/02 03:02:08;;;;;;;;;;;410.50;2355.20;;;;;;5031388;28;19953;-56
2022/09/02 03:04:34;;;;;;;;;;;410.40;2355.20;;;;;;5031708;28;19913;-56
2022/09/02 03:06:59;;;;;;;;;;;410.40;2355.20;;;;;;5031189;28;19975;-57
2022/09/02 03:09:25;;;;;;;;;;;410.40;2355.20;;;;;;5031398;28;20321;-56
2022/09/02 03:11:50;;;;;;;;;;;410.40;2355.20;;;;;;5031355;28;19917;-56
2022/09/02 03:14:18;;;;;;;;;;;410.30;2355.20;;;;;;5031353;28;19909;-55
2022/09/02 03:16:43;;;;;;;;;;;410.30;2355.20;;;;;;5031444;28;19913;-56
2022/09/02 03:19:12;;;;;;;;;;;410.30;2355.20;;;;;;5031238;28;20312;-56
2022/09/02 03:21:38;;;;;;;;;;;410.30;2355.20;;;;;;5030659;28;19913;-56
2022/09/02 03:24:04;;;;;;;;;;;410.30;2355.20;;;;;;5031158;28;19975;-55
2022/09/02 03:26:30;;;;;;;;;;;410.30;2355.20;;;;;;5030981;28;19918;-56
2022/09/02 03:28:55;;;;;;;;;;;410.30;2355.20;;;;;;5031207;28;19916;-56
2022/09/02 03:31:22;;;;;;;;;;;410.30;2355.20;;;;;;5031285;28;19963;-57
2022/09/02 03:33:48;;;;;;;;;;;410.20;1971.20;;;;;;5030924;28;19999;-55
2022/09/02 03:36:20;;;;;;;;;;;410.30;2355.20;;;;;;5031101;28;19963;-56
2022/09/02 03:38:46;;;;;;;;;;;410.30;2355.20;;;;;;5031457;28;20378;-56
2022/09/02 03:41:12;;;;;;;;;;;410.30;2355.20;;;;;;5031188;28;20355;-56
2022/09/02 03:43:37;;;;;;;;;;;410.20;2355.20;;;;;;5030916;28;19949;-56
2022/09/02 03:46:04;;;;;;;;;;;410.30;2355.20;;;;;;5030977;28;19918;-55
2022/09/02 03:48:29;;;;;;;;;;;410.30;2355.20;;;;;;5030894;28;19909;-56
2022/09/02 03:50:55;;;;;;;;;;;410.30;2355.20;;;;;;5030839;28;20056;-56
2022/09/02 03:53:20;;;;;;;;;;;410.20;2355.20;;;;;;5030948;28;19920;-55
2022/09/02 03:55:46;;;;;;;;;;;410.20;2355.20;;;;;;5030890;28;19962;-55
2022/09/02 03:58:12;;;;;;;;;;;410.30;2355.20;;;;;;5031140;28;19909;-56
2022/09/02 04:00:38;;;;;;;;;;;410.20;2355.20;;;;;;5030804;28;19909;-57
2022/09/02 04:03:04;;;;;;;;;;;410.20;2355.20;;;;;;5030861;28;20372;-57
2022/09/02 04:05:30;;;;;;;;;;;410.20;2355.20;;;;;;5030641;28;19909;-56
2022/09/02 04:07:56;;;;;;;;;;;410.10;2355.20;;;;;;5030529;28;19913;-54
2022/09/02 04:10:21;;;;;;;;;;;410.20;2355.20;;;;;;5030776;28;19971;-56
2022/09/02 04:12:48;;;;;;;;;;;410.20;2355.20;;;;;;5030974;28;19916;-56
2022/09/02 04:15:13;;;;;;;;;;;410.10;2355.20;;;;;;5030854;28;20382;-56
2022/09/02 04:17:39;;;;;;;;;;;410.10;2355.20;;;;;;5030544;28;20008;-56
2022/09/02 04:20:06;;;;;;;;;;;410.00;2355.20;;;;;;5030905;28;20394;-54
2022/09/02 04:22:32;;;;;;;;;;;410.10;2355.20;;;;;;5030322;28;19921;-56
2022/09/02 04:24:58;;;;;;;;;;;410.20;2355.20;;;;;;5030713;28;19913;-57
2022/09/02 04:27:23;;;;;;;;;;;410.20;2355.20;;;;;;5032233;28;20363;-56
2022/09/02 04:29:49;;;;;;;;;;;410.10;2355.20;;;;;;5034430;28;19956;-56
2022/09/02 04:32:15;;;;;;;;;;;410.20;2355.20;;;;;;5034630;28;19959;-56
2022/09/02 04:34:40;;;;;;;;;;;410.20;2355.20;;;;;;5034431;28;19916;-56
2022/09/02 04:37:06;;;;;;;;;;;410.20;2355.20;;;;;;5034071;28;20290;-56
2022/09/02 04:39:31;;;;;;;;;;;410.20;2355.20;;;;;;5034224;28;19909;-56
2022/09/02 04:41:57;;;;;;;;;;;410.10;2355.20;;;;;;5034062;28;19996;-56
2022/09/02 04:44:24;;;;;;;;;;;410.30;2355.20;;;;;;5034390;28;19955;-56
2022/09/02 04:46:50;;;;;;;;;;;410.30;2355.20;;;;;;5033831;28;19925;-56
2022/09/02 04:49:15;;;;;;;;;;;410.20;2355.20;;;;;;5034129;28;19913;-55
2022/09/02 04:51:41;;;;;;;;;;;410.20;2355.20;;;;;;5034030;28;20359;-57
2022/09/02 04:54:07;;;;;;;;;;;410.20;2355.20;;;;;;5033774;28;19959;-56
2022/09/02 04:56:33;;;;;;;;;;;410.20;2355.20;;;;;;5033926;28;19917;-56
2022/09/02 04:58:59;;;;;;;;;;;410.20;2355.20;;;;;;5033700;28;19909;-54
2022/09/02 05:01:26;;;;;;;;;;;410.20;2355.20;;;;;;5033887;28;19920;-56
2022/09/02 05:03:52;;;;;;;;;;;410.20;2355.20;;;;;;5034157;28;19916;-56
2022/09/02 05:06:25;;;;;;;;;;;410.10;2355.20;;;;;;5033505;28;19960;-52
2022/09/02 05:08:50;;;;;;;;;;;410.20;2355.20;;;;;;5033843;28;19913;-56
2022/09/02 05:11:17;;;;;;;;;;;410.20;2355.20;;;;;;5033662;28;20410;-56
2022/09/02 05:13:43;;;;;;;;;;;410.20;2355.20;;;;;;5033730;28;19953;-57
2022/09/02 05:16:09;;;;;;;;;;;410.30;2355.20;;;;;;5033366;28;19909;-56
2022/09/02 05:18:34;;;;;;;;;;;410.30;2355.20;;;;;;5033636;28;20007;-55
2022/09/02 05:21:03;;;;;;;;;;;410.30;2355.20;;;;;;5033190;28;19913;-55
2022/09/02 05:23:29;;;;;;;;;;;410.40;2355.20;;;;;;5033032;28;20445;-56
2022/09/02 05:25:54;;;;;;;;;;;410.50;2355.20;;;;;;5033558;28;19917;-56
2022/09/02 05:28:20;;;;;;;;;;;410.40;2355.20;;;;;;5033358;28;20386;-55
2022/09/02 05:30:45;;;;;;;;;;;410.50;2355.20;;;;;;5033164;28;20358;-56
2022/09/02 05:33:11;;;;;;;;;;;410.50;2355.20;;;;;;5033305;28;19961;-56
2022/09/02 05:35:41;;;;;;;;;;;435.30;2355.20;;;;;;5033085;28;19909;-57
2022/09/02 05:38:07;;;;;;;;;;;435.20;2355.20;;;;;;5032230;28;20000;-57
2022/09/02 05:40:33;;;;;;;;;;;410.50;2355.20;;;;;;5031291;28;20319;-56
2022/09/02 05:42:58;;;;;;;;;;;435.20;2355.20;;;;;;5033370;28;19954;-57
2022/09/02 05:45:24;;;;;;;;;;;435.30;2355.20;;;;;;5033074;28;20391;-56
2022/09/02 05:47:50;;;;;;;;;;;435.40;2355.20;;;;;;5032654;28;19917;-56
2022/09/02 05:50:16;;;;;;;;;;;435.40;2355.20;;;;;;5033079;28;19914;-56
2022/09/02 05:52:41;;;;;;;;;;;435.50;2355.20;;;;;;5032760;28;19920;-56
2022/09/02 05:55:07;;;;;;;;;;;435.60;2355.20;;;;;;5032966;28;19914;-56
2022/09/02 05:57:33;;;;;;;;;;;435.50;2355.20;;;;;;5033141;28;20375;-56
2022/09/02 05:59:58;;;;;;;;;;;435.50;2355.20;;;;;;5032746;28;19909;-56
2022/09/02 06:02:24;;;;;;;;;;;435.40;2355.20;;;;;;5032828;28;20360;-57
2022/09/02 06:04:52;;;;;;;;;;;435.50;2355.20;;;;;;5032493;28;19909;-56
2022/09/02 06:07:18;;;;;;;;;;;435.60;2355.20;;;;;;5032383;28;19918;-56
2022/09/02 06:09:44;;;;;;;;;;;435.60;2355.20;;;;;;5030736;28;19932;-57
2022/09/02 06:12:11;;;;;;;;;;;435.60;2355.20;;;;;;5032610;28;19909;-56
2022/09/02 06:14:37;;;;;;;;;;;435.70;2355.20;;;;;;5032557;28;20314;-56
2022/09/02 06:17:03;;;;;;;;;;;435.60;2355.20;;;;;;5032641;28;20004;-56
2022/09/02 06:19:31;;;;;;;;;;;435.70;2355.20;;;;;;5032220;28;19971;-56
2022/09/02 06:21:57;;;;;;;;;;;435.60;2355.20;;;;;;5031852;28;19970;-57
2022/09/02 06:24:23;;;;;;;;;;;435.70;2355.20;;;;;;5032311;28;19917;-57
2022/09/02 06:26:49;;;;;;;;;;;435.60;2355.20;;;;;;5032031;28;19924;-56
2022/09/02 06:29:15;;;;;;;;;;;435.60;2355.20;;;;;;5030539;28;19913;-56
2022/09/02 06:31:44;;;;;;;;;;;435.70;2355.20;;;;;;5032126;28;19909;-54
2022/09/02 06:34:12;;;;;;;;;;;435.80;2355.20;;;;;;5032001;28;19909;-56
2022/09/02 06:36:38;;;;;;;;;;;435.80;2355.20;;;;;;5031773;28;19909;-54
2022/09/02 06:39:03;;;;;;;;;;;435.70;2355.20;;;;;;5032036;28;19916;-56
2022/09/02 06:41:30;;;;;;;;;;;435.80;2355.20;;;;;;5031765;28;19909;-55
2022/09/02 06:43:57;;;;;;;;;;;435.60;2355.20;;;;;;5032094;28;19946;-53
2022/09/02 06:46:34;;;;;;;;;;;435.70;2355.20;;;;;;5031776;28;19917;-56
2022/09/02 06:48:59;;;;;;;;;;;435.60;2355.20;;;;;;5031568;28;20374;-56
2022/09/02 06:51:27;;;;;;;;;;;435.60;2355.20;;;;;;5031423;28;20015;-53
2022/09/02 06:53:52;;;;;;;;;;;435.80;2355.20;;;;;;5031739;28;20318;-53
2022/09/02 06:56:18;;;;;;;;;;;435.70;2355.20;;;;;;5031502;28;19915;-55
2022/09/02 06:58:44;;;;;;;;;;;435.60;2355.20;;;;;;5031951;28;19909;-53
2022/09/02 07:01:16;;;;;;;;;;;435.60;2355.20;;;;;;5031678;28;20351;-53
2022/09/02 07:06:26;;;;;;;;;;;435.50;2355.20;;;;;;5031885;28;19924;-54
2022/09/02 07:08:51;;;;;;;;;;;435.40;2355.20;;;;;;5032223;28;20302;-55
2022/09/02 07:11:19;;;;;;;;;;;435.50;2355.20;;;;;;5031350;28;19917;-59
2022/09/02 07:13:44;;;;;;;;;;;435.70;2355.20;;;;;;5031551;28;19919;-59
2022/09/02 07:16:10;;;;;;;;;;;435.50;2355.20;;;;;;5031281;28;20307;-59
2022/09/02 07:18:35;;;;;;;;;;;435.40;2355.20;;;;;;5031496;28;19909;-58
2022/09/02 07:21:01;;;;;;;;;;;435.60;2355.20;;;;;;5031295;28;19909;-59
2022/09/02 07:23:27;;;;;;;;;;;435.40;2355.20;;;;;;5031002;28;19925;-58
2022/09/02 07:25:54;;;;;;;;;;;435.30;2355.20;;;;;;5031230;28;19917;-58
2022/09/02 07:28:21;;;;;;;;;;;435.50;2355.20;;;;;;5031027;28;19913;-56
2022/09/02 07:30:47;;;;;;;;;;;435.50;2355.20;;;;;;5031006;28;19948;-56
2022/09/02 07:33:13;;;;;;;;;;;435.50;2355.20;;;;;;5031191;28;19962;-57
2022/09/02 07:35:40;;;;;;;;;;;435.60;2355.20;;;;;;5030875;28;19932;-59
2022/09/02 07:38:06;;;;;;;;;;;435.50;2355.20;;;;;;5031108;28;19913;-55
2022/09/02 07:40:35;;;;;;;;;;;435.60;2355.20;;;;;;5031139;28;19909;-56
2022/09/02 07:43:04;;;;;;;;;;;435.60;2355.20;;;;;;5031041;28;19913;-54
2022/09/02 07:45:30;;;;;;;;;;;435.50;2355.20;;;;;;5031008;28;19909;-55
2022/09/02 07:47:56;;;;;;;;;;;435.40;2355.20;;;;;;5030820;28;19940;-57
2022/09/02 07:50:23;;;;;;;;;;;435.50;2355.20;;;;;;5030949;28;19909;-59
2022/09/02 07:52:49;;;;;;;;;;;435.60;2355.20;;;;;;5030740;28;19917;-56
2022/09/02 07:55:15;;;;;;;;;;;435.60;2355.20;;;;;;5031105;28;19919;-58
2022/09/02 07:57:40;;;;;;;;;;;435.50;2355.20;;;;;;5028380;28;19976;-55
2022/09/02 08:00:07;;;;;;;;;;;435.50;2355.20;;;;;;5028679;28;19916;-54
2022/09/02 08:02:33;;;;;;;;;;;435.60;2355.20;;;;;;5030971;28;19921;-56
2022/09/02 08:04:58;;;;;;;;;;;435.70;2355.20;;;;;;5032649;28;20363;-56
2022/09/02 08:07:24;;;;;;;;;;;435.70;2355.20;;;;;;5030657;28;19971;-58
2022/09/02 08:09:50;;;;;;;;;;;435.80;2355.20;;;;;;5032356;28;19909;-56
2022/09/02 08:12:16;;;;;;;;;;;435.90;2355.20;;;;;;5032637;28;20335;-55
2022/09/02 08:14:42;;;;;;;;;;;436.10;2355.20;;;;;;5032867;28;19996;-57
2022/09/02 08:17:07;;;;;;;;;;;460.80;2380.80;;;;;;5032420;28;19913;-59
2022/09/02 08:19:33;;;;;;;;;;;460.80;2380.80;;;;;;5032520;28;19956;-60
2022/09/02 08:22:04;;;;;;;;;;;460.90;2380.80;;;;;;5032152;28;19944;-56
2022/09/02 08:24:31;;;;;;;;;;;460.90;2380.80;;;;;;5031825;28;19921;-58
2022/09/02 08:26:57;;;;;;;;;;;460.80;2380.80;;;;;;5032231;28;20318;-56
2022/09/02 08:29:22;;;;;;;;;;;460.80;2380.80;;;;;;5032560;28;19913;-57
2022/09/02 08:31:48;;;;;;;;;;;460.80;2380.80;;;;;;5032239;28;19947;-58
2022/09/02 08:34:13;;;;;;;;;;;460.80;2380.80;;;;;;5032461;28;19909;-56
2022/09/02 08:36:42;;;;;;;;;;;460.90;2380.80;;;;;;5030276;28;20286;-57
2022/09/02 08:39:08;;;;;;;;;;;460.80;2380.80;;;;;;5032067;28;19909;-57
2022/09/02 08:41:49;;;;;;;;;;;460.80;2380.80;;;;;;5032188;28;19955;-59
2022/09/02 08:44:19;;;;;;;;;;;460.80;2380.80;;;;;;5032200;28;19967;-55
2022/09/02 08:46:45;;;;;;;;;;;460.90;2380.80;;;;;;5032135;28;19968;-58
2022/09/02 08:49:15;;;;;;;;;;;460.90;2380.80;;;;;;5031629;28;20338;-59
2022/09/02 08:51:51;;;;;;;;;;;460.80;2380.80;;;;;;5032126;28;20647;-56
2022/09/02 08:54:24;;;;;;;;;;;461.10;2380.80;;;;;;5031795;28;19967;-58
2022/09/02 08:56:50;;;;;;;;;;;461.30;2380.80;;;;;;5031934;28;19952;-55
2022/09/02 08:59:19;;;;;;;;;;;461.50;2380.80;;;;;;5031840;28;19909;-55
2022/09/02 09:01:45;;;;;;;;;;;461.60;2380.80;;;;;;5031368;28;20008;-55
2022/09/02 09:04:10;;;;;;;;;;;461.60;2380.80;;;;;;5030537;28;20404;-55
2022/09/02 09:06:44;;;;;;;;;;;461.70;2380.80;;;;;;5032469;28;20398;-57
2022/09/02 09:09:39;;;;;;;;;;;461.40;2380.80;;;;;;5033709;28;19909;-59
2022/09/02 09:12:14;;;;;;;;;;;461.10;2380.80;;;;;;5020304;28;19967;-58
2022/09/02 09:14:48;;;;;;;;;;;460.90;2380.80;;;;;;5033179;28;19909;-57
2022/09/02 09:17:17;;;;;;;;;;;460.80;2380.80;;;;;;5033695;28;19932;-57
2022/09/02 09:19:48;;;;;;;;;;;460.80;2380.80;;;;;;5033792;28;19920;-58
2022/09/02 09:22:16;;;;;;;;;;;460.80;2380.80;;;;;;5033224;28;19963;-58
2022/09/02 09:24:43;;;;;;;;;;;460.80;2380.80;;;;;;5032437;28;19949;-57
2022/09/02 09:27:11;;;;;;;;;;;461.00;2380.80;;;;;;5033109;28;20371;-58
2022/09/02 09:29:37;;;;;;;;;;;460.90;2380.80;;;;;;5033406;28;19909;-58
2022/09/02 09:32:03;;;;;;;;;;;461.00;2380.80;;;;;;5033556;28;19909;-58
2022/09/02 09:34:50;;;;;;;;;;;461.00;2380.80;;;;;;5033432;28;19952;-55
2022/09/02 09:37:46;;;;;;;;;;;460.80;2380.80;;;;;;5022689;28;19913;-55
2022/09/02 09:40:23;;;;;;;;;;;436.10;2355.20;;;;;;4972425;28;20009;-54
2022/09/02 09:42:54;;;;;;;;;;;435.80;2355.20;;;;;;4972050;28;20324;-58
2022/09/02 09:45:22;;;;;;;;;;;435.90;2355.20;;;;;;4972144;28;20501;-58
2022/09/02 09:48:07;;;;;;;;;;;435.70;2355.20;;;;;;4971997;28;19925;-57
2022/09/02 09:50:32;;;;;;;;;;;435.80;2355.20;;;;;;4972057;28;19910;-58
2022/09/02 09:53:18;;;;;;;;;;;435.80;2355.20;;;;;;4972000;28;19914;-56
2022/09/02 09:55:54;;;;;;;;;;;435.90;2355.20;;;;;;4972057;28;19910;-54
2022/09/02 09:58:21;;;;;;;;;;;436.10;2355.20;;;;;;4971706;28;20373;-58
2022/09/02 10:00:46;;;;;;;;;;;436.00;2355.20;;;;;;4971924;28;19910;-55
2022/09/02 10:03:21;;;;;;;;;;;460.80;2380.80;;;;;;4971995;28;19957;-58
2022/09/02 10:05:48;;;;;;;;;;;460.80;2380.80;;;;;;4971607;28;19985;-59
2022/09/02 10:08:14;;;;;;;;;;;460.90;2380.80;;;;;;4971910;28;19958;-53
2022/09/02 10:10:52;;;;;;;;;;;460.90;2380.80;;;;;;4971779;28;20394;-56
2022/09/02 10:13:27;;;;;;;;;;;460.90;2380.80;;;;;;4971634;28;19910;-58
2022/09/02 10:16:13;;;;;;;;;;;461.20;2380.80;;;;;;4985683;28;19935;-54
2022/09/02 10:18:42;;;;;;;;;;;461.40;2380.80;;;;;;5021632;28;19948;-58
2022/09/02 10:21:21;;;;;;;;;;;461.50;2380.80;;;;;;5032164;28;19960;-58
2022/09/02 10:23:50;;;;;;;;;;;461.60;2380.80;;;;;;5032223;28;19925;-57
2022/09/02 10:26:15;;;;;;;;;;;461.30;2380.80;;;;;;5031821;28;19964;-53
2022/09/02 10:28:41;;;;;;;;;;;461.30;2380.80;;;;;;5032360;28;20287;-58
2022/09/02 10:31:18;;;;;;;;;;;461.40;2380.80;;;;;;5032161;28;20437;-55
2022/09/02 10:33:47;;;;;;;;;;;461.10;2380.80;;;;;;5032235;28;20326;-58
2022/09/02 10:36:31;;;;;;;;;;;461.00;2380.80;;;;;;5030990;28;19909;-59
2022/09/02 10:39:02;;;;;;;;;;;461.00;2380.80;;;;;;5032138;28;19960;-55
2022/09/02 10:41:36;;;;;;;;;;;461.10;2380.80;;;;;;5032017;28;19932;-58
2022/09/02 10:44:29;;;;;;;;;;;461.30;2380.80;;;;;;5032210;28;19965;-59
2022/09/02 10:46:59;;;;;;;;;;;461.40;2380.80;;;;;;4970933;28;20033;-59
2022/09/02 10:49:34;;;;;;;;;;;461.70;2380.80;;;;;;4971108;28;20331;-58
2022/09/02 10:52:09;;;;;;;;;;;461.70;2380.80;;;;;;4955235;28;20285;-58
2022/09/02 10:54:37;;;;;;;;;;;486.40;2380.80;;;;;;4970940;28;19918;-58
2022/09/02 10:57:05;;;;;;;;;;;461.70;2380.80;;;;;;4970947;28;19969;-59
2022/09/02 10:59:36;;;;;;;;;;;486.40;2380.80;;;;;;4970630;28;20416;-57
2022/09/02 11:02:02;;;;;;;;;;;461.70;2380.80;;;;;;4970793;28;19914;-58
2022/09/02 11:04:39;;;;;;;;;;;461.70;2380.80;;;;;;4970574;28;20432;-58
2022/09/02 11:07:07;;;;;;;;;;;486.60;2380.80;;;;;;4954438;28;19918;-59
2022/09/02 11:09:37;;;;;;;;;;;486.50;2380.80;;;;;;4970867;28;19910;-58
2022/09/02 11:12:21;;;;;;;;;;;486.50;2380.80;;;;;;4970691;28;19910;-55
2022/09/02 11:15:05;;;;;;;;;;;486.50;2380.80;;;;;;4970542;28;20013;-54
2022/09/02 11:17:51;;;;;;;;;;;486.40;2380.80;;;;;;4970467;28;19910;-58
2022/09/02 11:20:37;;;;;;;;;;;486.50;2380.80;;;;;;4970324;28;19917;-54
2022/09/02 11:23:05;;;;;;;;;;;486.60;2380.80;;;;;;4907544;29;19965;-56
2022/09/02 11:25:43;;;;;;;;;;;486.50;2380.80;;;;;;4951103;29;20013;-53
2022/09/02 11:28:14;;;;;;;;;;;486.50;2380.80;;;;;;4951017;29;19925;-58
2022/09/02 11:30:46;;;;;;;;;;;486.60;2380.80;;;;;;4951062;29;19910;-54
2022/09/02 11:33:17;;;;;;;;;;;486.60;2380.80;;;;;;4919328;29;19918;-61
2022/09/02 11:35:43;;;;;;;;;;;486.40;2380.80;;;;;;4950721;28;20373;-57
2022/09/02 11:38:17;;;;;;;;;;;461.70;2380.80;;;;;;4950206;29;19997;-58
2022/09/02 11:40:52;;;;;;;;;;;461.70;2380.80;;;;;;4950943;29;19968;-54
2022/09/02 11:43:31;;;;;;;;;;;486.40;2380.80;;;;;;4950815;29;19911;-55
2022/09/02 11:46:04;;;;;;;;;;;461.70;2380.80;;;;;;4950722;29;19910;-55
2022/09/02 11:48:39;;;;;;;;;;;486.50;2380.80;;;;;;4950829;29;19914;-54
2022/09/02 11:51:23;;;;;;;;;;;461.60;2380.80;;;;;;4950964;29;19911;-54
2022/09/02 11:53:50;;;;;;;;;;;461.70;2380.80;;;;;;4950677;29;19926;-55
2022/09/02 11:56:20;;;;;;;;;;;461.20;2380.80;;;;;;4951004;29;19973;-54
2022/09/02 11:58:48;;;;;;;;;;;461.30;2380.80;;;;;;4950963;29;19917;-55
2022/09/02 12:01:13;;;;;;;;;;;461.40;2380.80;;;;;;4989801;28;19964;-54
2022/09/02 12:03:49;;;;;;;;;;;461.40;2380.80;;;;;;4991437;28;19913;-60
2022/09/02 12:06:16;;;;;;;;;;;461.30;2380.80;;;;;;4991620;28;20355;-58
2022/09/02 12:08:41;;;;;;;;;;;461.10;2380.80;;;;;;4991379;28;19945;-58
2022/09/02 12:11:08;;;;;;;;;;;461.10;2380.80;;;;;;4991839;28;19956;-54
2022/09/02 12:13:40;;;;;;;;;;;461.00;2380.80;;;;;;4991589;28;19917;-54
2022/09/02 12:16:26;;;;;;;;;;;461.10;2380.80;;;;;;4991683;28;19910;-54
2022/09/02 12:19:12;;;;;;;;;;;461.10;2380.80;;;;;;4931737;29;19998;-54
2022/09/02 12:22:00;;;;;;;;;;;461.40;2380.80;;;;;;4933365;29;19911;-55
2022/09/02 12:24:26;;;;;;;;;;;461.50;2380.80;;;;;;4950658;29;19924;-56
2022/09/02 12:26:51;;;;;;;;;;;461.50;2380.80;;;;;;4950706;29;20009;-56
2022/09/02 12:29:17;;;;;;;;;;;461.60;2380.80;;;;;;4950502;29;19917;-55
2022/09/02 12:31:46;;;;;;;;;;;461.70;2380.80;;;;;;4950643;29;20017;-58
2022/09/02 12:34:23;;;;;;;;;;;461.70;2380.80;;;;;;4950661;29;19958;-56
2022/09/02 12:36:54;;;;;;;;;;;461.70;2380.80;;;;;;4950443;29;19997;-59
2022/09/02 12:39:29;;;;;;;;;;;486.60;2380.80;;;;;;4950299;29;19935;-55
2022/09/02 12:41:57;;;;;;;;;;;486.80;2380.80;;;;;;4950428;29;19911;-57
2022/09/02 12:44:27;;;;;;;;;;;486.60;2380.80;;;;;;4950593;29;20357;-59
2022/09/02 12:46:57;;;;;;;;;;;486.80;2380.80;;;;;;4950392;29;19954;-56
2022/09/02 12:49:34;;;;;;;;;;;486.90;2380.80;;;;;;4952614;28;20366;-55
2022/09/02 12:52:02;;;;;;;;;;;486.90;2380.80;;;;;;4951155;29;20001;-55
2022/09/02 12:54:48;;;;;;;;;;;487.00;2380.80;;;;;;4951382;29;20360;-55
2022/09/02 12:57:15;;;;;;;;;;;486.90;2380.80;;;;;;5012301;28;19909;-56
2022/09/02 12:59:42;;;;;;;;;;;486.90;2380.80;;;;;;5012217;28;19909;-58
2022/09/02 13:02:17;;;;;;;;;;;486.70;2380.80;;;;;;5011922;28;20012;-56
2022/09/02 13:05:01;;;;;;;;;;;486.70;2380.80;;;;;;5011719;28;19913;-57
2022/09/02 13:07:35;;;;;;;;;;;486.80;2380.80;;;;;;5011727;28;20288;-56
2022/09/02 13:10:20;;;;;;;;;;;486.80;2380.80;;;;;;5011797;28;19921;-58
2022/09/02 13:13:11;;;;;;;;;;;486.70;2380.80;;;;;;5011950;28;19918;-57
2022/09/02 13:15:43;;;;;;;;;;;486.60;2380.80;;;;;;5011508;28;20267;-60
2022/09/02 13:18:24;;;;;;;;;;;486.50;2380.80;;;;;;5011554;28;20370;-56
2022/09/02 13:21:16;;;;;;;;;;;461.70;2380.80;;;;;;5011499;28;19960;-56
2022/09/02 13:23:50;;;;;;;;;;;461.70;2380.80;;;;;;5030597;28;19931;-55
2022/09/02 13:26:18;;;;;;;;;;;486.50;2380.80;;;;;;5031335;28;20384;-56
2022/09/02 13:29:03;;;;;;;;;;;486.60;2380.80;;;;;;5031090;28;20454;-55
2022/09/02 13:31:29;;;;;;;;;;;486.70;2380.80;;;;;;5031131;28;19909;-59
2022/09/02 13:34:04;;;;;;;;;;;486.70;2380.80;;;;;;5031393;28;20295;-60
2022/09/02 13:36:35;;;;;;;;;;;486.60;2380.80;;;;;;5031091;28;19913;-59
2022/09/02 13:39:11;;;;;;;;;;;486.60;2380.80;;;;;;5030942;28;19913;-55
2022/09/02 13:41:37;;;;;;;;;;;486.60;2380.80;;;;;;5030898;28;19944;-57
2022/09/02 13:44:07;;;;;;;;;;;486.70;2380.80;;;;;;5031404;28;19959;-59
2022/09/02 13:46:33;;;;;;;;;;;486.50;2380.80;;;;;;5031187;28;19936;-58
2022/09/02 13:48:59;;;;;;;;;;;486.60;2380.80;;;;;;5030974;28;19909;-60
2022/09/02 13:51:24;;;;;;;;;;;486.70;2380.80;;;;;;5031129;28;19971;-61
2022/09/02 13:53:50;;;;;;;;;;;486.70;2380.80;;;;;;5030785;28;20256;-57